createdAt,value
2022-10-10T00:02:25.781Z,13.55
2022-10-10T00:04:55.982Z,11.00
2022-10-10T00:07:26.021Z,11.73
2022-10-10T00:09:56.298Z,12.57
2022-10-10T00:12:27.880Z,11.15
2022-10-10T00:14:58.210Z,10.95
2022-10-10T00:17:28.290Z,11.05
2022-10-10T00:19:58.614Z,11.98
2022-10-10T00:22:28.493Z,10.57
2022-10-10T00:24:58.740Z,11.82
2022-10-10T00:27:30.060Z,11.65
2022-10-10T00:30:01.479Z,12.02
2022-10-10T00:32:31.544Z,11.23
2022-10-10T00:35:01.842Z,11.50
2022-10-10T00:37:31.912Z,9.50
2022-10-10T00:40:02.164Z,10.30
2022-10-10T00:42:33.747Z,9.55
2022-10-10T00:45:26.042Z,9.68
2022-10-10T00:48:00.272Z,11.10
2022-10-10T00:50:31.652Z,10.02
2022-10-10T00:53:02.302Z,9.18
2022-10-10T00:55:32.839Z,10.45
2022-10-10T00:58:04.920Z,10.05
2022-10-10T01:00:35.292Z,9.85
2022-10-10T01:03:05.470Z,9.15
2022-10-10T01:05:36.032Z,9.60
2022-10-10T01:08:08.490Z,9.35
2022-10-10T01:10:43.881Z,9.25
2022-10-10T01:13:26.090Z,8.68
2022-10-10T01:16:03.021Z,7.97
2022-10-10T01:18:43.112Z,8.90
2022-10-10T01:21:27.010Z,9.52
2022-10-10T01:24:27.750Z,8.65
2022-10-10T01:27:36.600Z,8.38
2022-10-10T01:30:11.852Z,8.00
2022-10-10T01:32:46.290Z,8.27
2022-10-10T01:35:36.940Z,7.95
2022-10-10T01:38:19.237Z,8.10
2022-10-10T01:40:55.222Z,6.80
2022-10-10T01:43:27.013Z,9.10
2022-10-10T01:48:32.603Z,9.07
2022-10-10T01:51:32.570Z,7.57
2022-10-10T01:54:14.160Z,9.25
2022-10-10T01:56:54.190Z,8.35
2022-10-10T01:59:41.070Z,7.45
2022-10-10T02:02:21.223Z,7.20
2022-10-10T02:04:58.389Z,7.85
2022-10-10T02:07:32.780Z,8.25
2022-10-10T02:10:05.455Z,8.73
2022-10-10T02:12:37.770Z,7.25
2022-10-10T02:15:13.509Z,7.05
2022-10-10T02:17:48.300Z,7.47
2022-10-10T02:20:22.434Z,8.57
2022-10-10T02:22:53.695Z,7.18
2022-10-10T02:28:07.496Z,6.85
2022-10-10T02:30:42.709Z,8.32
2022-10-10T02:33:16.261Z,8.05
2022-10-10T02:35:49.821Z,9.00
2022-10-10T02:38:21.112Z,6.65
2022-10-10T02:43:22.590Z,6.72
2022-10-10T02:45:52.829Z,7.82
2022-10-10T02:48:24.504Z,7.32
2022-10-10T02:50:55.793Z,8.00
2022-10-10T02:53:25.841Z,7.55
2022-10-10T02:55:56.092Z,8.13
2022-10-10T02:58:26.120Z,6.93
2022-10-10T03:00:56.381Z,9.82
2022-10-10T03:03:28.281Z,8.27
2022-10-10T03:05:58.710Z,7.32
2022-10-10T03:08:28.654Z,7.63
2022-10-10T03:11:01.649Z,8.05
2022-10-10T03:13:31.582Z,6.43
2022-10-10T03:16:01.750Z,7.05
2022-10-10T03:18:33.211Z,8.15
2022-10-10T03:21:03.519Z,8.00
2022-10-10T03:23:34.750Z,8.25
2022-10-10T03:26:05.581Z,9.63
2022-10-10T03:28:35.755Z,7.75
2022-10-10T03:31:06.261Z,9.48
2022-10-10T03:33:38.341Z,9.25
2022-10-10T03:36:08.961Z,6.72
2022-10-10T03:38:40.350Z,7.70
2022-10-10T03:41:10.671Z,7.65
2022-10-10T03:43:40.799Z,7.65
2022-10-10T03:46:15.803Z,7.90
2022-10-10T03:48:48.909Z,8.38
2022-10-10T03:51:19.251Z,9.15
2022-10-10T03:53:49.170Z,8.27
2022-10-10T03:56:19.492Z,7.72
2022-10-10T03:58:49.450Z,7.97
2022-10-10T04:01:19.822Z,7.68
2022-10-10T04:03:52.286Z,7.80
2022-10-10T04:06:22.800Z,7.88
2022-10-10T04:08:53.071Z,8.10
2022-10-10T04:11:23.519Z,7.07
2022-10-10T04:13:53.489Z,8.07
2022-10-10T04:16:23.742Z,7.28
2022-10-10T04:18:55.400Z,8.10
2022-10-10T04:21:25.713Z,8.63
2022-10-10T04:23:55.690Z,8.43
2022-10-10T04:26:25.980Z,7.88
2022-10-10T04:28:56.119Z,7.53
2022-10-10T04:31:26.422Z,8.18
2022-10-10T04:33:58.194Z,8.65
2022-10-10T04:36:28.452Z,8.02
2022-10-10T04:38:58.363Z,7.07
2022-10-10T04:41:28.573Z,7.43
2022-10-10T04:43:58.672Z,8.05
2022-10-10T04:46:29.013Z,8.70
2022-10-10T04:49:00.524Z,9.70
2022-10-10T04:52:01.835Z,10.60
2022-10-10T04:54:32.093Z,10.23
2022-10-10T05:00:01.765Z,12.20
2022-10-10T05:02:42.994Z,12.38
2022-10-10T05:05:33.255Z,11.93
2022-10-10T05:08:11.696Z,12.57
2022-10-10T05:10:44.356Z,11.48
2022-10-10T05:13:21.136Z,12.73
2022-10-10T05:19:31.444Z,14.23
2022-10-10T05:23:21.395Z,12.40
2022-10-10T05:26:02.347Z,12.52
2022-10-10T05:30:00.376Z,13.00
2022-10-10T05:33:28.407Z,11.93
2022-10-10T05:36:05.788Z,14.43
2022-10-10T05:38:38.066Z,15.95
2022-10-10T05:41:14.365Z,14.25
2022-10-10T05:43:45.314Z,14.70
2022-10-10T05:50:02.606Z,15.23
2022-10-10T05:52:32.684Z,15.02
2022-10-10T05:55:03.124Z,15.20
2022-10-10T05:57:37.694Z,14.75
2022-10-10T06:00:09.735Z,15.13
2022-10-10T06:02:46.014Z,14.77
2022-10-10T06:05:35.137Z,15.07
2022-10-10T06:08:11.555Z,16.33
2022-10-10T06:10:57.803Z,14.88
2022-10-10T06:17:26.796Z,15.20
2022-10-10T06:29:07.858Z,18.70
2022-10-10T06:33:20.987Z,17.35
2022-10-10T06:37:15.835Z,20.38
2022-10-10T06:39:46.265Z,17.95
2022-10-10T06:42:16.837Z,21.33
2022-10-10T06:44:47.604Z,21.25
2022-10-10T06:47:17.816Z,22.63
2022-10-10T06:49:48.635Z,23.50
2022-10-10T06:52:20.906Z,25.35
2022-10-10T06:54:52.116Z,20.80
2022-10-10T06:57:28.758Z,22.20
2022-10-10T07:00:14.831Z,22.52
2022-10-10T07:02:54.528Z,19.75
2022-10-10T07:05:25.635Z,18.30
2022-10-10T07:07:57.727Z,19.80
2022-10-10T07:10:32.665Z,18.77
2022-10-10T07:14:09.294Z,15.60
2022-10-10T07:17:14.556Z,14.77
2022-10-10T07:19:46.574Z,13.52
2022-10-10T07:32:22.934Z,11.38
2022-10-10T07:38:59.110Z,10.43
2022-10-10T07:41:48.501Z,11.52
2022-10-10T07:44:19.313Z,9.35
2022-10-10T07:46:49.807Z,9.52
2022-10-10T07:49:20.051Z,9.60
2022-10-10T07:51:50.780Z,9.88
2022-10-10T07:54:22.152Z,10.35
2022-10-10T07:56:52.483Z,8.93
2022-10-10T07:59:23.603Z,10.40
2022-10-10T08:01:54.237Z,8.77
2022-10-10T08:04:25.234Z,8.53
2022-10-10T08:06:55.711Z,9.70
2022-10-10T08:09:27.562Z,9.00
2022-10-10T08:11:58.083Z,8.50
2022-10-10T08:14:28.702Z,9.30
2022-10-10T08:16:59.161Z,8.50
2022-10-10T08:19:29.593Z,8.90
2022-10-10T08:21:59.941Z,9.60
2022-10-10T08:24:32.013Z,9.50
2022-10-10T08:27:02.420Z,8.88
2022-10-10T08:29:34.039Z,7.88
2022-10-10T08:32:04.903Z,8.38
2022-10-10T08:34:35.671Z,7.43
2022-10-10T08:37:06.370Z,7.70
2022-10-10T08:39:38.111Z,8.37
2022-10-10T08:42:08.942Z,6.95
2022-10-10T08:44:42.323Z,7.57
2022-10-10T08:47:18.746Z,7.90
2022-10-10T08:49:52.299Z,8.00
2022-10-10T08:52:31.961Z,8.50
2022-10-10T08:55:07.811Z,7.50
2022-10-10T08:57:47.813Z,6.78
2022-10-10T09:00:22.181Z,7.05
2022-10-10T09:02:57.652Z,7.95
2022-10-10T09:05:43.613Z,6.13
2022-10-10T09:08:28.565Z,6.05
2022-10-10T09:11:09.237Z,6.20
2022-10-10T09:13:44.461Z,6.20
2022-10-10T09:16:25.512Z,7.28
2022-10-10T09:19:06.330Z,6.22
2022-10-10T09:21:40.373Z,7.15
2022-10-10T09:24:18.750Z,6.13
2022-10-10T09:26:54.735Z,6.97
2022-10-10T09:29:34.170Z,6.80
2022-10-10T09:32:11.288Z,6.75
2022-10-10T09:34:46.811Z,5.63
2022-10-10T09:37:42.587Z,5.78
2022-10-10T09:40:22.005Z,6.25
2022-10-10T09:42:53.834Z,5.35
2022-10-10T09:45:29.012Z,5.70
2022-10-10T09:48:00.221Z,5.68
2022-10-10T09:53:01.654Z,4.97
2022-10-10T09:55:36.401Z,5.13
2022-10-10T09:58:17.236Z,4.75
2022-10-10T10:00:47.570Z,4.27
2022-10-10T10:03:19.948Z,3.72
2022-10-10T10:05:58.172Z,5.10
2022-10-10T10:08:31.170Z,5.70
2022-10-10T10:11:02.495Z,4.60
2022-10-10T10:13:36.912Z,5.13
2022-10-10T10:16:10.792Z,4.43
2022-10-10T10:18:42.713Z,5.05
2022-10-10T10:21:19.804Z,4.47
2022-10-10T10:23:57.053Z,5.63
2022-10-10T10:26:29.975Z,4.88
2022-10-10T10:29:01.741Z,5.15
2022-10-10T10:31:54.683Z,4.53
2022-10-10T10:35:02.502Z,4.43
2022-10-10T10:37:42.274Z,4.72
2022-10-10T10:40:33.320Z,4.82
2022-10-10T10:43:36.640Z,5.05
2022-10-10T10:46:16.243Z,5.45
2022-10-10T10:48:48.764Z,4.78
2022-10-10T10:51:41.731Z,4.07
2022-10-10T10:54:25.901Z,5.10
2022-10-10T10:57:06.394Z,4.60
2022-10-10T11:00:16.969Z,3.95
2022-10-10T11:02:57.473Z,5.28
2022-10-10T11:05:41.745Z,4.28
2022-10-10T11:08:36.117Z,4.38
2022-10-10T11:11:22.310Z,4.40
2022-10-10T11:14:00.470Z,4.63
2022-10-10T11:16:50.324Z,4.07
2022-10-10T11:19:29.750Z,4.45
2022-10-10T11:22:05.913Z,4.43
2022-10-10T11:25:04.999Z,4.18
2022-10-10T11:27:40.011Z,4.80
2022-10-10T11:30:17.424Z,4.93
2022-10-10T11:32:55.333Z,4.82
2022-10-10T11:35:35.921Z,4.35
2022-10-10T11:38:16.991Z,4.20
2022-10-10T11:40:55.351Z,4.72
2022-10-10T11:43:35.302Z,5.15
2022-10-10T11:46:16.651Z,4.80
2022-10-10T11:48:55.225Z,4.57
2022-10-10T11:51:48.743Z,4.90
2022-10-10T11:54:33.224Z,4.43
2022-10-10T11:57:12.865Z,3.92
2022-10-10T11:59:48.533Z,4.50
2022-10-10T12:02:25.846Z,3.67
2022-10-10T12:04:58.847Z,5.35
2022-10-10T12:07:34.253Z,4.47
2022-10-10T12:10:11.052Z,4.13
2022-10-10T12:12:45.741Z,3.83
2022-10-10T12:15:27.862Z,4.40
2022-10-10T12:17:58.612Z,4.93
2022-10-10T12:20:38.000Z,5.85
2022-10-10T12:23:34.162Z,4.13
2022-10-10T12:26:04.851Z,4.45
2022-10-10T12:28:59.612Z,4.70
2022-10-10T12:31:32.390Z,4.05
2022-10-10T12:34:15.903Z,4.90
2022-10-10T12:36:57.903Z,4.82
2022-10-10T12:39:40.921Z,4.90
2022-10-10T12:42:33.942Z,4.60
2022-10-10T12:45:04.132Z,5.10
2022-10-10T12:48:04.560Z,5.38
2022-10-10T12:50:38.675Z,5.15
2022-10-10T12:53:19.383Z,4.53
2022-10-10T12:55:55.254Z,4.30
2022-10-10T12:58:28.743Z,4.45
2022-10-10T13:01:01.963Z,4.68
2022-10-10T13:03:36.890Z,4.47
2022-10-10T13:06:10.120Z,4.50
2022-10-10T13:08:43.513Z,5.72
2022-10-10T13:11:17.293Z,5.75
2022-10-10T13:13:53.461Z,5.03
2022-10-10T13:16:28.727Z,5.45
2022-10-10T13:19:03.013Z,6.10
2022-10-10T13:21:35.450Z,6.40
2022-10-10T13:24:07.993Z,6.40
2022-10-10T13:26:46.180Z,6.30
2022-10-10T13:29:26.882Z,4.75
2022-10-10T13:32:01.172Z,4.75
2022-10-10T13:34:34.642Z,5.80
2022-10-10T13:37:06.846Z,5.25
2022-10-10T13:39:40.461Z,5.55
2022-10-10T13:42:27.688Z,4.95
2022-10-10T13:45:00.561Z,5.07
2022-10-10T13:47:52.458Z,6.18
2022-10-10T13:50:27.011Z,5.10
2022-10-10T13:53:25.693Z,5.28
2022-10-10T13:56:04.030Z,5.05
2022-10-10T13:58:41.228Z,5.32
2022-10-10T14:01:31.087Z,5.38
2022-10-10T14:04:16.801Z,5.80
2022-10-10T14:06:56.187Z,5.95
2022-10-10T14:09:31.431Z,5.90
2022-10-10T14:12:04.031Z,5.68
2022-10-10T14:14:45.492Z,5.20
2022-10-10T14:19:49.854Z,7.15
2022-10-10T14:22:22.127Z,5.57
2022-10-10T14:24:57.571Z,5.97
2022-10-10T14:27:36.281Z,6.22
2022-10-10T14:30:10.821Z,6.07
2022-10-10T14:32:41.311Z,6.13
2022-10-10T14:35:13.803Z,6.03
2022-10-10T14:37:44.103Z,7.07
2022-10-10T14:40:21.451Z,7.15
2022-10-10T14:42:51.830Z,5.90
2022-10-10T14:45:23.293Z,6.25
2022-10-10T14:47:53.912Z,6.75
2022-10-10T14:50:27.904Z,6.72
2022-10-10T14:52:58.562Z,6.45
2022-10-10T14:55:28.951Z,6.47
2022-10-10T14:57:59.470Z,6.45
2022-10-10T15:00:31.443Z,6.65
2022-10-10T15:03:01.720Z,6.45
2022-10-10T15:05:31.891Z,6.82
2022-10-10T15:08:02.293Z,6.30
2022-10-10T15:10:34.039Z,7.25
2022-10-10T15:13:05.523Z,6.25
2022-10-10T15:15:36.981Z,7.22
2022-10-10T15:18:25.709Z,6.28
2022-10-10T15:20:58.109Z,6.40
2022-10-10T15:23:28.924Z,7.40
2022-10-10T15:26:02.814Z,7.60
2022-10-10T15:28:34.166Z,8.00
2022-10-10T15:31:06.251Z,7.55
2022-10-10T15:33:37.741Z,8.25
2022-10-10T15:36:11.053Z,7.30
2022-10-10T15:38:45.243Z,7.20
2022-10-10T15:41:17.323Z,7.70
2022-10-10T15:44:13.803Z,7.78
2022-10-10T15:46:46.759Z,8.02
2022-10-10T15:49:17.383Z,8.05
2022-10-10T15:51:49.133Z,7.75
2022-10-10T15:54:19.939Z,7.55
2022-10-10T15:56:50.462Z,7.40
2022-10-10T15:59:24.160Z,7.80
2022-10-10T16:01:57.659Z,7.72
2022-10-10T16:04:29.247Z,8.45
2022-10-10T16:09:53.813Z,7.40
2022-10-10T16:12:23.910Z,8.18
2022-10-10T16:14:55.582Z,8.00
2022-10-10T16:17:28.000Z,7.45
2022-10-10T16:19:59.617Z,9.23
2022-10-10T16:22:29.773Z,8.60
2022-10-10T16:27:54.162Z,8.77
2022-10-10T16:30:24.954Z,7.97
2022-10-10T16:32:56.490Z,10.18
2022-10-10T16:35:26.780Z,8.30
2022-10-10T16:37:56.821Z,8.27
2022-10-10T16:40:27.199Z,9.05
2022-10-10T16:42:57.360Z,9.38
2022-10-10T16:45:27.711Z,9.57
2022-10-10T16:47:59.242Z,8.75
2022-10-10T16:50:29.957Z,8.52
2022-10-10T16:53:01.158Z,9.27
2022-10-10T16:55:31.410Z,7.53
2022-10-10T16:58:01.963Z,8.02
2022-10-10T17:00:32.649Z,7.05
2022-10-10T17:03:04.769Z,7.45
2022-10-10T17:05:35.292Z,7.95
2022-10-10T17:08:05.803Z,7.07
2022-10-10T17:10:36.050Z,8.50
2022-10-10T17:13:05.961Z,7.82
2022-10-10T17:15:36.371Z,7.80
2022-10-10T17:18:09.882Z,7.03
2022-10-10T17:20:43.557Z,7.35
2022-10-10T17:23:14.430Z,6.85
2022-10-10T17:25:45.390Z,6.95
2022-10-10T17:28:16.496Z,7.00
2022-10-10T17:30:51.236Z,7.15
2022-10-10T17:33:25.392Z,6.72
2022-10-10T17:35:56.205Z,7.13
2022-10-10T17:38:39.683Z,7.53
2022-10-10T17:41:14.041Z,7.55
2022-10-10T17:43:44.450Z,6.65
2022-10-10T17:49:09.891Z,7.82
2022-10-10T17:51:42.342Z,8.55
2022-10-10T17:54:13.771Z,7.47
2022-10-10T17:56:45.070Z,8.05
2022-10-10T17:59:16.252Z,8.32
2022-10-10T18:01:46.801Z,9.95
2022-10-10T18:04:19.242Z,9.38
2022-10-10T18:06:49.530Z,8.77
2022-10-10T18:09:19.503Z,11.30
2022-10-10T18:11:50.529Z,7.57
2022-10-10T18:14:22.489Z,7.82
2022-10-10T18:16:52.622Z,7.20
2022-10-10T18:19:24.752Z,7.45
2022-10-10T18:21:55.249Z,7.65
2022-10-10T18:24:27.534Z,9.18
2022-10-10T18:26:58.740Z,8.00
2022-10-10T18:29:29.064Z,8.43
2022-10-10T18:31:59.002Z,7.60
2022-10-10T18:34:32.769Z,8.10
2022-10-10T18:37:04.464Z,8.02
2022-10-10T18:39:36.334Z,9.27
2022-10-10T18:42:08.299Z,8.57
2022-10-10T18:44:38.996Z,9.05
2022-10-10T18:47:12.814Z,8.18
2022-10-10T18:49:46.765Z,9.40
2022-10-10T18:52:18.561Z,8.40
2022-10-10T18:54:50.724Z,8.10
2022-10-10T18:57:22.355Z,8.80
2022-10-10T18:59:59.184Z,6.60
2022-10-10T19:02:30.211Z,6.95
2022-10-10T19:05:01.830Z,7.43
2022-10-10T19:07:32.007Z,8.02
2022-10-10T19:10:02.311Z,6.28
2022-10-10T19:12:32.152Z,6.82
2022-10-10T19:15:02.152Z,7.13
2022-10-10T19:17:33.672Z,6.90
2022-10-10T19:20:05.682Z,6.30
2022-10-10T19:22:35.915Z,7.57
2022-10-10T19:25:06.562Z,6.22
2022-10-10T19:27:36.563Z,5.97
2022-10-10T19:30:07.542Z,6.22
2022-10-10T19:32:37.904Z,6.20
2022-10-10T19:35:10.261Z,6.00
2022-10-10T19:37:40.272Z,7.28
2022-10-10T19:40:12.458Z,6.10
2022-10-10T19:42:42.361Z,6.70
2022-10-10T19:45:13.111Z,5.80
2022-10-10T19:47:43.293Z,5.93
2022-10-10T19:50:15.091Z,6.97
2022-10-10T19:52:44.960Z,6.53
2022-10-10T19:55:15.420Z,7.10
2022-10-10T19:57:45.311Z,7.15
2022-10-10T20:00:16.813Z,6.03
2022-10-10T20:02:47.241Z,6.75
2022-10-10T20:05:18.893Z,7.28
2022-10-10T20:07:51.253Z,7.05
2022-10-10T20:10:21.942Z,7.38
2022-10-10T20:12:52.122Z,6.47
2022-10-10T20:15:22.170Z,7.10
2022-10-10T20:17:52.153Z,7.20
2022-10-10T20:20:24.492Z,7.47
2022-10-10T20:22:56.292Z,6.13
2022-10-10T20:25:30.963Z,6.60
2022-10-10T20:28:01.071Z,6.75
2022-10-10T20:30:31.369Z,7.40
2022-10-10T20:33:01.541Z,7.20
2022-10-10T20:35:34.133Z,7.05
2022-10-10T20:38:05.047Z,6.55
2022-10-10T20:40:38.611Z,6.57
2022-10-10T20:43:11.260Z,5.65
2022-10-10T20:45:42.989Z,6.68
2022-10-10T20:48:13.334Z,6.38
2022-10-10T20:50:44.943Z,5.97
2022-10-10T20:53:15.141Z,6.35
2022-10-10T20:55:45.083Z,5.40
2022-10-10T20:58:15.042Z,5.88
2022-10-10T21:00:45.489Z,5.93
2022-10-10T21:03:15.468Z,6.63
2022-10-10T21:05:46.872Z,5.95
2022-10-10T21:08:17.121Z,6.10
2022-10-10T21:10:47.490Z,7.70
2022-10-10T21:13:17.458Z,7.20
2022-10-10T21:15:47.731Z,6.38
2022-10-10T21:18:17.731Z,5.90
2022-10-10T21:20:49.812Z,6.72
2022-10-10T21:23:19.702Z,6.90
2022-10-10T21:25:50.411Z,6.85
2022-10-10T21:28:20.331Z,6.22
2022-10-10T21:30:50.699Z,7.50
2022-10-10T21:33:21.410Z,6.63
2022-10-10T21:35:55.601Z,7.05
2022-10-10T21:38:27.421Z,6.30
2022-10-10T21:43:27.365Z,6.70
2022-10-10T21:46:03.440Z,5.70
2022-10-10T21:48:34.200Z,5.97
2022-10-10T21:51:05.975Z,5.28
2022-10-10T21:53:36.762Z,5.80
2022-10-10T21:56:08.990Z,5.85
2022-10-10T21:58:40.817Z,6.40
2022-10-10T22:03:41.483Z,5.90
2022-10-10T22:06:14.621Z,6.53
2022-10-10T22:08:46.021Z,6.10
2022-10-10T22:11:18.733Z,5.63
2022-10-10T22:13:49.662Z,6.05
2022-10-10T22:16:21.007Z,6.07
2022-10-10T22:21:30.287Z,6.10
2022-10-10T22:24:02.916Z,7.05
2022-10-10T22:26:34.044Z,5.07
2022-10-10T22:29:04.679Z,5.85
2022-10-10T22:31:37.978Z,6.63
2022-10-10T22:34:08.672Z,5.68
2022-10-10T22:36:40.072Z,6.70
2022-10-10T22:39:11.422Z,6.38
2022-10-10T22:41:41.453Z,5.47
2022-10-10T22:44:11.829Z,7.78
2022-10-10T22:46:41.654Z,6.45
2022-10-10T22:49:11.820Z,6.10
2022-10-10T22:51:43.141Z,6.25
2022-10-10T22:54:15.131Z,6.28
2022-10-10T22:56:44.991Z,6.10
2022-10-10T22:59:15.351Z,6.45
2022-10-10T23:01:45.352Z,6.35
2022-10-10T23:04:15.501Z,7.45
2022-10-10T23:06:47.202Z,6.93
2022-10-10T23:09:18.150Z,7.13
2022-10-10T23:11:48.633Z,6.70
2022-10-10T23:14:19.300Z,6.20
2022-10-10T23:16:49.483Z,6.20
2022-10-10T23:19:19.543Z,6.45
2022-10-10T23:21:51.073Z,6.15
2022-10-10T23:24:21.640Z,7.38
2022-10-10T23:26:52.013Z,6.97
2022-10-10T23:29:23.161Z,7.13
2022-10-10T23:31:53.073Z,6.60
2022-10-10T23:34:23.340Z,6.80
2022-10-10T23:36:55.371Z,7.50
2022-10-10T23:39:25.652Z,7.60
2022-10-10T23:41:55.680Z,6.15
2022-10-10T23:44:26.031Z,6.65
2022-10-10T23:46:55.983Z,6.20
2022-10-10T23:49:25.973Z,6.72
2022-10-10T23:51:57.731Z,6.75
2022-10-10T23:56:57.604Z,6.15
2022-10-10T23:59:27.531Z,6.45
